sensor_id;sensor_type;location;lat;lon;timestamp;pressure;altitude;pressure_sealevel;temperature;humidity
12949;BME280;6539;49.476;8.484;2023-05-22T00:01:06;100064.06;;;22.83;51.61
12949;BME280;6539;49.476;8.484;2023-05-22T00:03:34;100069.38;;;22.81;51.69
12949;BME280;6539;49.476;8.484;2023-05-22T00:06:03;100062.22;;;22.80;52.02
12949;BME280;6539;49.476;8.484;2023-05-22T00:08:34;100068.06;;;22.76;52.09
12949;BME280;6539;49.476;8.484;2023-05-22T00:11:00;100068.56;;;22.74;52.03
12949;BME280;6539;49.476;8.484;2023-05-22T00:13:26;100057.09;;;22.72;52.20
12949;BME280;6539;49.476;8.484;2023-05-22T00:15:54;100067.97;;;22.65;52.52
12949;BME280;6539;49.476;8.484;2023-05-22T00:18:23;100067.19;;;22.64;52.56
12949;BME280;6539;49.476;8.484;2023-05-22T00:20:53;100059.31;;;22.63;52.72
12949;BME280;6539;49.476;8.484;2023-05-22T00:23:19;100066.88;;;22.57;52.88
12949;BME280;6539;49.476;8.484;2023-05-22T00:25:46;100062.03;;;22.57;52.95
12949;BME280;6539;49.476;8.484;2023-05-22T00:28:12;100065.81;;;22.54;52.96
12949;BME280;6539;49.476;8.484;2023-05-22T00:30:38;100059.91;;;22.47;53.56
12949;BME280;6539;49.476;8.484;2023-05-22T00:33:08;100056.84;;;22.45;53.70
12949;BME280;6539;49.476;8.484;2023-05-22T00:35:34;100057.28;;;22.38;54.08
12949;BME280;6539;49.476;8.484;2023-05-22T00:38:03;100055.25;;;22.38;54.00
12949;BME280;6539;49.476;8.484;2023-05-22T00:40:31;100050.13;;;22.37;54.21
12949;BME280;6539;49.476;8.484;2023-05-22T00:42:57;100050.09;;;22.31;54.38
12949;BME280;6539;49.476;8.484;2023-05-22T00:45:23;100055.69;;;22.31;54.38
12949;BME280;6539;49.476;8.484;2023-05-22T00:47:50;100059.19;;;22.26;54.61
12949;BME280;6539;49.476;8.484;2023-05-22T00:50:19;100062.50;;;22.25;54.80
12949;BME280;6539;49.476;8.484;2023-05-22T00:52:45;100068.59;;;22.23;54.79
12949;BME280;6539;49.476;8.484;2023-05-22T00:55:13;100061.94;;;22.21;55.07
12949;BME280;6539;49.476;8.484;2023-05-22T00:57:40;100060.63;;;22.16;55.47
12949;BME280;6539;49.476;8.484;2023-05-22T01:00:08;100060.09;;;22.12;55.68
12949;BME280;6539;49.476;8.484;2023-05-22T01:02:37;100057.72;;;22.05;56.02
12949;BME280;6539;49.476;8.484;2023-05-22T01:05:04;100055.19;;;22.07;56.05
12949;BME280;6539;49.476;8.484;2023-05-22T01:07:32;100059.25;;;22.06;56.15
12949;BME280;6539;49.476;8.484;2023-05-22T01:10:03;100063.81;;;22.04;56.39
12949;BME280;6539;49.476;8.484;2023-05-22T01:18:33;100072.47;;;21.85;57.37
12949;BME280;6539;49.476;8.484;2023-05-22T01:21:18;100077.13;;;21.74;57.71
12949;BME280;6539;49.476;8.484;2023-05-22T01:28:09;100066.13;;;21.65;58.37
12949;BME280;6539;49.476;8.484;2023-05-22T01:33:25;100069.03;;;21.56;58.75
12949;BME280;6539;49.476;8.484;2023-05-22T01:35:58;100060.66;;;21.56;58.72
12949;BME280;6539;49.476;8.484;2023-05-22T01:38:26;100058.66;;;21.56;58.78
12949;BME280;6539;49.476;8.484;2023-05-22T01:40:58;100061.91;;;21.55;58.71
12949;BME280;6539;49.476;8.484;2023-05-22T01:43:30;100066.25;;;21.56;58.83
12949;BME280;6539;49.476;8.484;2023-05-22T01:45:56;100068.25;;;21.55;58.56
12949;BME280;6539;49.476;8.484;2023-05-22T01:48:22;100066.53;;;21.58;58.38
12949;BME280;6539;49.476;8.484;2023-05-22T01:50:54;100071.06;;;21.55;58.42
12949;BME280;6539;49.476;8.484;2023-05-22T01:57:09;100068.75;;;21.54;58.26
12949;BME280;6539;49.476;8.484;2023-05-22T01:59:48;100074.06;;;21.52;58.49
12949;BME280;6539;49.476;8.484;2023-05-22T02:02:18;100071.75;;;21.50;58.47
12949;BME280;6539;49.476;8.484;2023-05-22T02:04:59;100072.53;;;21.51;58.18
12949;BME280;6539;49.476;8.484;2023-05-22T02:07:26;100073.56;;;21.53;58.14
12949;BME280;6539;49.476;8.484;2023-05-22T02:09:56;100071.00;;;21.50;58.21
12949;BME280;6539;49.476;8.484;2023-05-22T02:12:23;100084.47;;;21.51;58.22
12949;BME280;6539;49.476;8.484;2023-05-22T02:14:50;100084.69;;;21.48;58.16
12949;BME280;6539;49.476;8.484;2023-05-22T02:17:19;100085.66;;;21.45;58.60
12949;BME280;6539;49.476;8.484;2023-05-22T02:19:47;100086.63;;;21.42;58.70
12949;BME280;6539;49.476;8.484;2023-05-22T02:22:13;100082.34;;;21.26;59.56
12949;BME280;6539;49.476;8.484;2023-05-22T02:24:47;100083.31;;;21.23;59.69
12949;BME280;6539;49.476;8.484;2023-05-22T02:27:14;100084.69;;;21.13;60.24
12949;BME280;6539;49.476;8.484;2023-05-22T02:29:41;100082.66;;;20.99;60.89
12949;BME280;6539;49.476;8.484;2023-05-22T02:32:07;100087.78;;;21.00;60.85
12949;BME280;6539;49.476;8.484;2023-05-22T02:34:33;100082.94;;;21.01;60.90
12949;BME280;6539;49.476;8.484;2023-05-22T02:37:00;100082.19;;;21.00;60.80
12949;BME280;6539;49.476;8.484;2023-05-22T02:39:33;100084.38;;;20.96;61.02
12949;BME280;6539;49.476;8.484;2023-05-22T02:41:59;100079.03;;;20.93;61.15
12949;BME280;6539;49.476;8.484;2023-05-22T02:44:25;100078.25;;;20.92;61.17
12949;BME280;6539;49.476;8.484;2023-05-22T02:46:53;100082.59;;;20.93;61.25
12949;BME280;6539;49.476;8.484;2023-05-22T02:49:18;100082.03;;;20.89;61.17
12949;BME280;6539;49.476;8.484;2023-05-22T02:51:47;100077.78;;;20.79;61.59
12949;BME280;6539;49.476;8.484;2023-05-22T02:54:14;100076.94;;;20.73;61.87
12949;BME280;6539;49.476;8.484;2023-05-22T02:56:42;100082.59;;;20.64;62.29
12949;BME280;6539;49.476;8.484;2023-05-22T02:59:08;100078.19;;;20.58;62.58
12949;BME280;6539;49.476;8.484;2023-05-22T03:01:34;100079.53;;;20.47;62.97
12949;BME280;6539;49.476;8.484;2023-05-22T03:04:03;100083.38;;;20.50;63.14
12949;BME280;6539;49.476;8.484;2023-05-22T03:06:35;100075.31;;;20.52;62.92
12949;BME280;6539;49.476;8.484;2023-05-22T03:09:02;100081.16;;;20.54;63.03
12949;BME280;6539;49.476;8.484;2023-05-22T03:11:31;100088.59;;;20.57;62.92
12949;BME280;6539;49.476;8.484;2023-05-22T03:13:57;100082.53;;;20.59;62.84
12949;BME280;6539;49.476;8.484;2023-05-22T03:16:23;100088.31;;;20.55;62.82
12949;BME280;6539;49.476;8.484;2023-05-22T03:18:49;100090.19;;;20.49;63.53
12949;BME280;6539;49.476;8.484;2023-05-22T03:21:15;100096.19;;;20.42;63.71
12949;BME280;6539;49.476;8.484;2023-05-22T03:23:44;100095.13;;;20.39;64.05
12949;BME280;6539;49.476;8.484;2023-05-22T03:26:12;100096.63;;;20.40;63.93
12949;BME280;6539;49.476;8.484;2023-05-22T03:28:38;100094.81;;;20.37;64.02
12949;BME280;6539;49.476;8.484;2023-05-22T03:31:06;100098.97;;;20.42;64.00
12949;BME280;6539;49.476;8.484;2023-05-22T03:33:33;100096.19;;;20.42;64.03
12949;BME280;6539;49.476;8.484;2023-05-22T03:35:59;100096.47;;;20.44;63.90
12949;BME280;6539;49.476;8.484;2023-05-22T03:38:30;100098.28;;;20.47;63.77
12949;BME280;6539;49.476;8.484;2023-05-22T03:40:58;100098.09;;;20.50;63.67
12949;BME280;6539;49.476;8.484;2023-05-22T03:43:24;100108.84;;;20.43;63.75
12949;BME280;6539;49.476;8.484;2023-05-22T03:45:49;100113.38;;;20.40;64.02
12949;BME280;6539;49.476;8.484;2023-05-22T03:48:19;100104.63;;;20.33;64.13
12949;BME280;6539;49.476;8.484;2023-05-22T03:50:49;100109.22;;;20.36;64.15
12949;BME280;6539;49.476;8.484;2023-05-22T03:53:16;100108.56;;;20.26;64.39
12949;BME280;6539;49.476;8.484;2023-05-22T03:55:42;100113.06;;;20.24;64.60
12949;BME280;6539;49.476;8.484;2023-05-22T03:58:07;100104.22;;;20.25;64.53
12949;BME280;6539;49.476;8.484;2023-05-22T04:00:36;100104.22;;;20.25;64.74
12949;BME280;6539;49.476;8.484;2023-05-22T04:03:03;100107.78;;;20.26;64.66
12949;BME280;6539;49.476;8.484;2023-05-22T04:05:29;100108.72;;;20.23;64.80
12949;BME280;6539;49.476;8.484;2023-05-22T04:07:56;100115.56;;;20.22;64.84
12949;BME280;6539;49.476;8.484;2023-05-22T04:10:27;100107.78;;;20.26;64.49
12949;BME280;6539;49.476;8.484;2023-05-22T04:12:55;100117.69;;;20.27;64.66
12949;BME280;6539;49.476;8.484;2023-05-22T04:15:20;100117.69;;;20.27;64.49
12949;BME280;6539;49.476;8.484;2023-05-22T04:17:46;100122.38;;;20.21;65.26
12949;BME280;6539;49.476;8.484;2023-05-22T04:20:15;100125.16;;;20.21;65.27
12949;BME280;6539;49.476;8.484;2023-05-22T04:22:47;100126.41;;;20.20;65.53
12949;BME280;6539;49.476;8.484;2023-05-22T04:25:16;100120.91;;;20.11;66.01
12949;BME280;6539;49.476;8.484;2023-05-22T04:27:44;100123.19;;;20.12;66.02
12949;BME280;6539;49.476;8.484;2023-05-22T04:30:09;100122.91;;;20.10;66.47
12949;BME280;6539;49.476;8.484;2023-05-22T04:32:35;100126.47;;;20.11;66.40
12949;BME280;6539;49.476;8.484;2023-05-22T04:35:03;100125.34;;;20.17;66.14
12949;BME280;6539;49.476;8.484;2023-05-22T04:37:29;100134.19;;;20.16;66.28
12949;BME280;6539;49.476;8.484;2023-05-22T04:40:01;100139.75;;;20.16;66.43
12949;BME280;6539;49.476;8.484;2023-05-22T04:42:33;100136.31;;;20.21;66.49
12949;BME280;6539;49.476;8.484;2023-05-22T04:45:02;100130.53;;;20.10;66.87
12949;BME280;6539;49.476;8.484;2023-05-22T04:47:31;100135.13;;;20.13;66.86
12949;BME280;6539;49.476;8.484;2023-05-22T04:50:01;100128.25;;;20.23;66.55
12949;BME280;6539;49.476;8.484;2023-05-22T04:52:28;100131.34;;;20.25;66.46
12949;BME280;6539;49.476;8.484;2023-05-22T04:54:56;100132.69;;;20.29;66.34
12949;BME280;6539;49.476;8.484;2023-05-22T04:57:22;100132.81;;;20.35;66.12
12949;BME280;6539;49.476;8.484;2023-05-22T04:59:50;100131.53;;;20.36;66.00
12949;BME280;6539;49.476;8.484;2023-05-22T05:02:19;100142.53;;;20.39;66.04
12949;BME280;6539;49.476;8.484;2023-05-22T05:04:45;100136.94;;;20.39;66.10
12949;BME280;6539;49.476;8.484;2023-05-22T05:07:11;100134.25;;;20.45;65.87
12949;BME280;6539;49.476;8.484;2023-05-22T05:09:37;100135.31;;;20.47;65.90
12949;BME280;6539;49.476;8.484;2023-05-22T05:12:03;100141.66;;;20.48;65.92
12949;BME280;6539;49.476;8.484;2023-05-22T05:14:29;100138.59;;;20.46;66.40
12949;BME280;6539;49.476;8.484;2023-05-22T05:16:59;100144.09;;;20.55;66.05
12949;BME280;6539;49.476;8.484;2023-05-22T05:19:26;100139.84;;;20.60;65.75
12949;BME280;6539;49.476;8.484;2023-05-22T05:21:57;100138.78;;;20.72;65.26
12949;BME280;6539;49.476;8.484;2023-05-22T05:24:23;100139.66;;;20.78;65.34
12949;BME280;6539;49.476;8.484;2023-05-22T05:26:49;100142.34;;;20.87;64.96
12949;BME280;6539;49.476;8.484;2023-05-22T05:29:15;100144.06;;;20.99;64.70
12949;BME280;6539;49.476;8.484;2023-05-22T05:31:41;100137.63;;;21.07;64.17
12949;BME280;6539;49.476;8.484;2023-05-22T05:34:06;100136.41;;;21.08;64.25
12949;BME280;6539;49.476;8.484;2023-05-22T05:36:37;100141.97;;;21.08;64.08
12949;BME280;6539;49.476;8.484;2023-05-22T05:39:05;100136.75;;;21.16;63.91
12949;BME280;6539;49.476;8.484;2023-05-22T05:41:33;100130.78;;;21.23;63.69
12949;BME280;6539;49.476;8.484;2023-05-22T05:43:59;100132.41;;;21.30;63.55
12949;BME280;6539;49.476;8.484;2023-05-22T05:46:25;100146.03;;;21.42;62.93
12949;BME280;6539;49.476;8.484;2023-05-22T05:48:51;100144.31;;;21.45;63.22
12949;BME280;6539;49.476;8.484;2023-05-22T05:51:19;100136.09;;;21.56;63.04
12949;BME280;6539;49.476;8.484;2023-05-22T05:53:51;100141.84;;;21.67;62.37
12949;BME280;6539;49.476;8.484;2023-05-22T05:56:16;100140.72;;;21.79;62.04
12949;BME280;6539;49.476;8.484;2023-05-22T05:58:42;100148.53;;;21.75;61.90
12949;BME280;6539;49.476;8.484;2023-05-22T06:01:10;100142.41;;;21.71;61.99
12949;BME280;6539;49.476;8.484;2023-05-22T06:03:36;100156.16;;;21.74;61.67
12949;BME280;6539;49.476;8.484;2023-05-22T06:06:07;100154.31;;;21.86;61.65
12949;BME280;6539;49.476;8.484;2023-05-22T06:08:33;100158.50;;;21.96;61.46
12949;BME280;6539;49.476;8.484;2023-05-22T06:11:05;100161.72;;;22.09;61.16
12949;BME280;6539;49.476;8.484;2023-05-22T06:13:32;100164.72;;;22.26;60.75
12949;BME280;6539;49.476;8.484;2023-05-22T06:16:01;100164.13;;;22.42;60.09
12949;BME280;6539;49.476;8.484;2023-05-22T06:18:31;100163.91;;;22.45;59.84
12949;BME280;6539;49.476;8.484;2023-05-22T06:20:57;100167.06;;;22.53;59.33
12949;BME280;6539;49.476;8.484;2023-05-22T06:23:28;100165.66;;;22.63;59.08
12949;BME280;6539;49.476;8.484;2023-05-22T06:25:54;100167.53;;;22.71;58.60
12949;BME280;6539;49.476;8.484;2023-05-22T06:28:20;100161.50;;;22.79;58.51
12949;BME280;6539;49.476;8.484;2023-05-22T06:30:49;100164.88;;;22.88;58.14
12949;BME280;6539;49.476;8.484;2023-05-22T06:33:17;100161.97;;;23.03;57.52
12949;BME280;6539;49.476;8.484;2023-05-22T06:35:45;100175.38;;;23.24;57.10
12949;BME280;6539;49.476;8.484;2023-05-22T06:38:16;100171.09;;;23.29;57.02
12949;BME280;6539;49.476;8.484;2023-05-22T06:40:42;100163.28;;;23.38;56.84
12949;BME280;6539;49.476;8.484;2023-05-22T06:43:10;100167.38;;;23.43;56.27
12949;BME280;6539;49.476;8.484;2023-05-22T06:45:36;100155.72;;;23.50;55.97
12949;BME280;6539;49.476;8.484;2023-05-22T06:48:05;100158.19;;;23.79;55.01
12949;BME280;6539;49.476;8.484;2023-05-22T06:50:35;100167.00;;;24.09;54.33
12949;BME280;6539;49.476;8.484;2023-05-22T06:53:03;100160.47;;;24.40;53.31
12949;BME280;6539;49.476;8.484;2023-05-22T06:55:29;100157.44;;;24.49;52.21
12949;BME280;6539;49.476;8.484;2023-05-22T06:57:57;100162.09;;;24.74;51.81
12949;BME280;6539;49.476;8.484;2023-05-22T07:00:25;100168.03;;;24.92;50.91
12949;BME280;6539;49.476;8.484;2023-05-22T07:02:51;100163.88;;;24.71;51.67
12949;BME280;6539;49.476;8.484;2023-05-22T07:05:17;100165.22;;;24.92;51.81
12949;BME280;6539;49.476;8.484;2023-05-22T07:07:47;100161.09;;;25.32;50.28
12949;BME280;6539;49.476;8.484;2023-05-22T07:10:13;100164.19;;;25.62;49.01
12949;BME280;6539;49.476;8.484;2023-05-22T07:12:43;100169.53;;;25.60;48.06
12949;BME280;6539;49.476;8.484;2023-05-22T07:15:09;100173.63;;;25.59;46.78
12949;BME280;6539;49.476;8.484;2023-05-22T07:17:38;100175.66;;;25.36;47.15
12949;BME280;6539;49.476;8.484;2023-05-22T07:20:07;100174.66;;;25.50;47.05
12949;BME280;6539;49.476;8.484;2023-05-22T07:22:33;100174.13;;;25.63;46.90
12949;BME280;6539;49.476;8.484;2023-05-22T07:24:59;100183.53;;;25.82;46.34
12949;BME280;6539;49.476;8.484;2023-05-22T07:27:27;100185.25;;;26.13;44.78
12949;BME280;6539;49.476;8.484;2023-05-22T07:29:53;100185.50;;;26.04;45.03
12949;BME280;6539;49.476;8.484;2023-05-22T07:32:19;100189.34;;;26.06;44.98
12949;BME280;6539;49.476;8.484;2023-05-22T07:34:44;100181.16;;;26.19;44.86
12949;BME280;6539;49.476;8.484;2023-05-22T07:37:12;100186.16;;;26.43;44.21
12949;BME280;6539;49.476;8.484;2023-05-22T07:39:38;100187.78;;;26.68;43.40
12949;BME280;6539;49.476;8.484;2023-05-22T07:42:04;100190.94;;;26.54;43.79
12949;BME280;6539;49.476;8.484;2023-05-22T07:44:33;100184.59;;;26.42;43.46
12949;BME280;6539;49.476;8.484;2023-05-22T07:47:01;100177.34;;;26.58;43.21
12949;BME280;6539;49.476;8.484;2023-05-22T07:49:27;100186.44;;;26.34;44.25
12949;BME280;6539;49.476;8.484;2023-05-22T07:51:54;100186.22;;;26.26;44.74
12949;BME280;6539;49.476;8.484;2023-05-22T07:54:20;100178.97;;;26.48;44.13
12949;BME280;6539;49.476;8.484;2023-05-22T07:56:46;100181.81;;;26.83;43.63
12949;BME280;6539;49.476;8.484;2023-05-22T07:59:12;100186.66;;;26.88;43.06
12949;BME280;6539;49.476;8.484;2023-05-22T08:01:41;100189.09;;;27.02;42.82
12949;BME280;6539;49.476;8.484;2023-05-22T08:04:09;100192.22;;;27.29;42.49
12949;BME280;6539;49.476;8.484;2023-05-22T08:06:35;100197.63;;;27.56;41.71
12949;BME280;6539;49.476;8.484;2023-05-22T08:09:02;100194.19;;;27.69;40.30
12949;BME280;6539;49.476;8.484;2023-05-22T08:11:29;100194.88;;;27.51;40.97
12949;BME280;6539;49.476;8.484;2023-05-22T08:13:54;100191.16;;;27.67;40.17
12949;BME280;6539;49.476;8.484;2023-05-22T08:16:23;100197.16;;;27.52;40.77
12949;BME280;6539;49.476;8.484;2023-05-22T08:18:49;100196.06;;;27.61;40.84
12949;BME280;6539;49.476;8.484;2023-05-22T08:21:15;100200.66;;;27.88;41.01
12949;BME280;6539;49.476;8.484;2023-05-22T08:23:41;100203.25;;;28.10;39.93
12949;BME280;6539;49.476;8.484;2023-05-22T08:26:07;100199.59;;;27.91;40.26
12949;BME280;6539;49.476;8.484;2023-05-22T08:28:35;100201.56;;;27.77;40.27
12949;BME280;6539;49.476;8.484;2023-05-22T08:31:01;100201.22;;;27.57;41.11
12949;BME280;6539;49.476;8.484;2023-05-22T08:33:29;100208.84;;;27.38;41.75
12949;BME280;6539;49.476;8.484;2023-05-22T08:35:57;100197.22;;;27.17;42.32
12949;BME280;6539;49.476;8.484;2023-05-22T08:38:25;100199.34;;;27.41;41.74
12949;BME280;6539;49.476;8.484;2023-05-22T08:40:56;100190.47;;;27.55;41.06
12949;BME280;6539;49.476;8.484;2023-05-22T08:43:22;100191.97;;;27.62;41.32
12949;BME280;6539;49.476;8.484;2023-05-22T08:45:59;100188.06;;;27.65;41.38
12949;BME280;6539;49.476;8.484;2023-05-22T08:48:30;100189.59;;;27.90;40.86
12949;BME280;6539;49.476;8.484;2023-05-22T08:51:02;100191.06;;;27.97;40.40
12949;BME280;6539;49.476;8.484;2023-05-22T08:53:34;100189.78;;;27.73;40.74
12949;BME280;6539;49.476;8.484;2023-05-22T08:56:06;100184.31;;;27.81;40.42
12949;BME280;6539;49.476;8.484;2023-05-22T08:58:36;100189.13;;;27.62;40.78
12949;BME280;6539;49.476;8.484;2023-05-22T09:01:04;100184.13;;;27.49;41.09
12949;BME280;6539;49.476;8.484;2023-05-22T09:03:34;100182.34;;;27.16;41.58
12949;BME280;6539;49.476;8.484;2023-05-22T09:06:02;100177.41;;;26.93;42.30
12949;BME280;6539;49.476;8.484;2023-05-22T09:08:28;100180.75;;;26.91;42.49
12949;BME280;6539;49.476;8.484;2023-05-22T09:10:54;100176.94;;;26.89;42.55
12949;BME280;6539;49.476;8.484;2023-05-22T09:13:30;100178.03;;;26.80;42.73
12949;BME280;6539;49.476;8.484;2023-05-22T09:16:12;100179.16;;;26.55;43.49
12949;BME280;6539;49.476;8.484;2023-05-22T09:18:39;100181.25;;;26.49;43.51
12949;BME280;6539;49.476;8.484;2023-05-22T09:21:10;100182.88;;;26.28;44.03
12949;BME280;6539;49.476;8.484;2023-05-22T09:23:36;100177.50;;;26.30;44.38
12949;BME280;6539;49.476;8.484;2023-05-22T09:26:04;100178.47;;;26.38;44.17
12949;BME280;6539;49.476;8.484;2023-05-22T09:28:35;100177.22;;;26.39;44.75
12949;BME280;6539;49.476;8.484;2023-05-22T09:31:02;100176.75;;;26.29;45.06
12949;BME280;6539;49.476;8.484;2023-05-22T09:33:29;100173.97;;;26.24;45.18
12949;BME280;6539;49.476;8.484;2023-05-22T09:35:57;100177.50;;;26.30;45.02
12949;BME280;6539;49.476;8.484;2023-05-22T09:38:29;100180.31;;;26.30;45.29
12949;BME280;6539;49.476;8.484;2023-05-22T09:40:58;100179.53;;;26.35;45.13
12949;BME280;6539;49.476;8.484;2023-05-22T09:43:26;100179.84;;;26.26;45.00
12949;BME280;6539;49.476;8.484;2023-05-22T09:45:59;100180.16;;;26.00;45.24
12949;BME280;6539;49.476;8.484;2023-05-22T09:48:33;100173.06;;;25.83;45.64
12949;BME280;6539;49.476;8.484;2023-05-22T09:51:02;100171.03;;;25.72;45.77
12949;BME280;6539;49.476;8.484;2023-05-22T09:53:31;100177.94;;;25.71;45.99
12949;BME280;6539;49.476;8.484;2023-05-22T09:55:59;100168.91;;;25.95;45.67
12949;BME280;6539;49.476;8.484;2023-05-22T09:58:30;100173.22;;;26.18;45.31
12949;BME280;6539;49.476;8.484;2023-05-22T10:01:01;100165.94;;;26.39;44.31
12949;BME280;6539;49.476;8.484;2023-05-22T10:03:31;100164.53;;;26.16;45.50
12949;BME280;6539;49.476;8.484;2023-05-22T10:06:05;100164.56;;;25.99;45.54
12949;BME280;6539;49.476;8.484;2023-05-22T10:08:47;100159.63;;;26.22;45.62
12949;BME280;6539;49.476;8.484;2023-05-22T10:11:15;100170.56;;;26.36;45.08
12949;BME280;6539;49.476;8.484;2023-05-22T10:13:42;100173.84;;;26.46;44.79
12949;BME280;6539;49.476;8.484;2023-05-22T10:16:14;100166.84;;;26.58;43.92
12949;BME280;6539;49.476;8.484;2023-05-22T10:18:44;100169.69;;;26.53;44.17
12949;BME280;6539;49.476;8.484;2023-05-22T10:21:15;100163.50;;;26.60;44.07
12949;BME280;6539;49.476;8.484;2023-05-22T10:23:44;100159.56;;;26.85;43.74
12949;BME280;6539;49.476;8.484;2023-05-22T10:26:10;100163.97;;;27.04;43.03
12949;BME280;6539;49.476;8.484;2023-05-22T10:28:55;100160.75;;;27.25;43.11
12949;BME280;6539;49.476;8.484;2023-05-22T10:31:34;100152.69;;;27.40;42.45
12949;BME280;6539;49.476;8.484;2023-05-22T10:34:07;100153.34;;;27.51;41.78
12949;BME280;6539;49.476;8.484;2023-05-22T10:40:01;100155.91;;;27.73;41.83
12949;BME280;6539;49.476;8.484;2023-05-22T10:42:30;100140.25;;;27.97;41.10
12949;BME280;6539;49.476;8.484;2023-05-22T10:44:59;100135.75;;;28.12;40.93
12949;BME280;6539;49.476;8.484;2023-05-22T10:47:25;100133.22;;;28.27;40.27
12949;BME280;6539;49.476;8.484;2023-05-22T10:50:10;100132.97;;;28.25;40.32
12949;BME280;6539;49.476;8.484;2023-05-22T10:52:38;100124.59;;;28.20;39.44
12949;BME280;6539;49.476;8.484;2023-05-22T10:55:09;100124.59;;;28.20;39.93
12949;BME280;6539;49.476;8.484;2023-05-22T10:57:39;100125.44;;;28.33;39.70
12949;BME280;6539;49.476;8.484;2023-05-22T11:00:16;100125.81;;;28.24;40.04
12949;BME280;6539;49.476;8.484;2023-05-22T11:02:47;100125.81;;;28.24;40.07
12949;BME280;6539;49.476;8.484;2023-05-22T11:07:48;100110.75;;;28.53;39.50
12949;BME280;6539;49.476;8.484;2023-05-22T11:10:24;100120.63;;;28.65;38.48
12949;BME280;6539;49.476;8.484;2023-05-22T11:13:10;100117.69;;;28.71;38.38
12949;BME280;6539;49.476;8.484;2023-05-22T11:15:43;100113.41;;;28.83;37.97
12949;BME280;6539;49.476;8.484;2023-05-22T11:18:11;100117.97;;;28.86;38.01
12949;BME280;6539;49.476;8.484;2023-05-22T11:20:39;100113.97;;;28.95;38.16
12949;BME280;6539;49.476;8.484;2023-05-22T11:23:09;100105.72;;;28.97;37.74
12949;BME280;6539;49.476;8.484;2023-05-22T11:25:40;100104.56;;;28.55;38.28
12949;BME280;6539;49.476;8.484;2023-05-22T11:28:09;100097.78;;;28.63;38.71
12949;BME280;6539;49.476;8.484;2023-05-22T11:30:36;100097.19;;;28.84;38.36
12949;BME280;6539;49.476;8.484;2023-05-22T11:33:03;100095.53;;;29.07;38.00
12949;BME280;6539;49.476;8.484;2023-05-22T11:35:33;100098.41;;;29.20;38.01
12949;BME280;6539;49.476;8.484;2023-05-22T11:38:03;100086.66;;;29.29;37.31
12949;BME280;6539;49.476;8.484;2023-05-22T11:40:30;100082.31;;;29.28;37.85
12949;BME280;6539;49.476;8.484;2023-05-22T11:42:58;100087.09;;;29.33;37.01
12949;BME280;6539;49.476;8.484;2023-05-22T11:45:25;100084.69;;;29.24;37.58
12949;BME280;6539;49.476;8.484;2023-05-22T11:47:54;100083.16;;;29.23;37.18
12949;BME280;6539;49.476;8.484;2023-05-22T11:50:22;100078.16;;;29.16;37.07
12949;BME280;6539;49.476;8.484;2023-05-22T11:52:53;100079.25;;;29.26;36.84
12949;BME280;6539;49.476;8.484;2023-05-22T11:55:19;100079.28;;;29.39;36.45
12949;BME280;6539;49.476;8.484;2023-05-22T11:57:44;100074.91;;;29.51;35.41
12949;BME280;6539;49.476;8.484;2023-05-22T12:00:12;100066.41;;;29.64;35.26
12949;BME280;6539;49.476;8.484;2023-05-22T12:02:44;100070.78;;;29.78;35.42
12949;BME280;6539;49.476;8.484;2023-05-22T12:05:11;100075.00;;;29.85;35.48
12949;BME280;6539;49.476;8.484;2023-05-22T12:07:39;100068.47;;;29.90;35.13
12949;BME280;6539;49.476;8.484;2023-05-22T12:10:07;100062.50;;;29.67;34.69
12949;BME280;6539;49.476;8.484;2023-05-22T12:12:36;100064.03;;;29.55;35.07
12949;BME280;6539;49.476;8.484;2023-05-22T12:15:07;100055.97;;;29.59;35.20
12949;BME280;6539;49.476;8.484;2023-05-22T12:17:35;100056.41;;;29.76;34.95
12949;BME280;6539;49.476;8.484;2023-05-22T12:20:05;100047.47;;;29.85;34.82
12949;BME280;6539;49.476;8.484;2023-05-22T12:22:39;100044.28;;;30.02;34.73
12949;BME280;6539;49.476;8.484;2023-05-22T12:25:13;100040.69;;;30.01;34.61
12949;BME280;6539;49.476;8.484;2023-05-22T12:27:42;100048.56;;;29.95;34.64
12949;BME280;6539;49.476;8.484;2023-05-22T12:30:11;100045.91;;;30.10;33.96
12949;BME280;6539;49.476;8.484;2023-05-22T12:32:45;100044.53;;;30.25;33.81
12949;BME280;6539;49.476;8.484;2023-05-22T12:35:15;100054.59;;;30.12;34.35
12949;BME280;6539;49.476;8.484;2023-05-22T12:37:50;100048.94;;;30.12;34.24
12949;BME280;6539;49.476;8.484;2023-05-22T12:40:21;100040.28;;;29.97;34.15
12949;BME280;6539;49.476;8.484;2023-05-22T12:42:47;100044.75;;;29.80;35.00
12949;BME280;6539;49.476;8.484;2023-05-22T12:45:13;100041.59;;;29.83;35.22
12949;BME280;6539;49.476;8.484;2023-05-22T12:47:39;100049.31;;;29.70;35.65
12949;BME280;6539;49.476;8.484;2023-05-22T12:50:06;100051.72;;;29.79;35.17
12949;BME280;6539;49.476;8.484;2023-05-22T12:52:31;100039.91;;;30.01;34.82
12949;BME280;6539;49.476;8.484;2023-05-22T12:54:57;100045.19;;;30.17;34.58
12949;BME280;6539;49.476;8.484;2023-05-22T12:57:23;100039.13;;;30.13;35.20
12949;BME280;6539;49.476;8.484;2023-05-22T12:59:49;100035.47;;;30.26;35.28
12949;BME280;6539;49.476;8.484;2023-05-22T13:02:15;100045.09;;;30.23;34.83
12949;BME280;6539;49.476;8.484;2023-05-22T13:04:41;100039.94;;;30.22;35.53
12949;BME280;6539;49.476;8.484;2023-05-22T13:07:07;100038.22;;;30.32;35.64
12949;BME280;6539;49.476;8.484;2023-05-22T13:09:35;100027.66;;;30.53;34.63
12949;BME280;6539;49.476;8.484;2023-05-22T13:12:03;100034.00;;;30.46;35.00
12949;BME280;6539;49.476;8.484;2023-05-22T13:14:29;100030.53;;;30.40;35.49
12949;BME280;6539;49.476;8.484;2023-05-22T13:16:57;100027.44;;;30.51;35.02
12949;BME280;6539;49.476;8.484;2023-05-22T13:19:23;100032.69;;;30.47;35.16
12949;BME280;6539;49.476;8.484;2023-05-22T13:21:51;100023.28;;;30.52;34.18
12949;BME280;6539;49.476;8.484;2023-05-22T13:24:19;100027.16;;;30.62;33.69
12949;BME280;6539;49.476;8.484;2023-05-22T13:26:45;100017.75;;;30.67;33.81
12949;BME280;6539;49.476;8.484;2023-05-22T13:29:11;100016.84;;;30.31;35.20